Aniwa, Wisconsin
Current Conditions -  °F | °C
As of 7:55 AM on Monday 22 Dec 2014 (Local Time) from KAIG Reporting Station
Haze Haze  
Wind Chill: 21°   Ceiling: 500
Heat Index: 30°   Visibility: 1.5mi
Dew Point: 30°   Wind: 12mph
Humidity: 99%   Direction: 150°SSE
Pressure: 29.84"   Gusts: NA
Location:  45.01°N, 89.21°W
Report Text: KAIG 221355Z AUTO 15010KT 1 1/2SM BR OVC005 M01/M01 A2984 RMK AO2 T10101011
Loading
Personal Weather Stations






























Interactive Weather Map New forecast layout! Learn more

10-Day Weather Forecast

Advertisements
Track Severe Weather on mobile